sensor_id;sensor_type;location;lat;lon;timestamp;pressure;altitude;pressure_sealevel;temperature;humidity
21102;BME280;10709;49.006;12.100;2023-07-02T00:01:26;48734.28;;;-146.00;69.05
21102;BME280;10709;49.006;12.100;2023-07-02T00:03:52;48722.53;;;-146.00;69.25
21102;BME280;10709;49.006;12.100;2023-07-02T00:06:19;48753.88;;;-146.00;69.45
21102;BME280;10709;49.006;12.100;2023-07-02T00:08:47;48718.59;;;-146.00;69.82
21102;BME280;10709;49.006;12.100;2023-07-02T00:11:15;48765.63;;;-146.00;69.64
21102;BME280;10709;49.006;12.100;2023-07-02T00:13:42;48759.75;;;-146.00;69.88
21102;BME280;10709;49.006;12.100;2023-07-02T00:16:09;48744.06;;;-146.00;70.18
21102;BME280;10709;49.006;12.100;2023-07-02T00:18:35;48746.03;;;-146.00;70.81
21102;BME280;10709;49.006;12.100;2023-07-02T00:21:02;48746.03;;;-146.00;70.83
21102;BME280;10709;49.006;12.100;2023-07-02T00:23:30;48753.88;;;-146.00;71.09
21102;BME280;10709;49.006;12.100;2023-07-02T00:25:57;48746.03;;;-146.00;71.12
21102;BME280;10709;49.006;12.100;2023-07-02T00:28:25;48734.28;;;-146.00;71.49
21102;BME280;10709;49.006;12.100;2023-07-02T00:30:53;48755.84;;;-146.00;71.56
21102;BME280;10709;49.006;12.100;2023-07-02T00:33:27;48753.88;;;-146.00;71.47
21102;BME280;10709;49.006;12.100;2023-07-02T00:35:56;48757.78;;;-146.00;71.60
21102;BME280;10709;49.006;12.100;2023-07-02T00:38:24;48742.13;;;-146.00;72.37
21102;BME280;10709;49.006;12.100;2023-07-02T00:40:51;48730.38;;;-146.00;71.84
21102;BME280;10709;49.006;12.100;2023-07-02T00:43:18;48730.38;;;-146.00;72.72
21102;BME280;10709;49.006;12.100;2023-07-02T00:45:46;48757.78;;;-146.00;73.03
21102;BME280;10709;49.006;12.100;2023-07-02T00:48:13;48757.78;;;-146.00;72.85
21102;BME280;10709;49.006;12.100;2023-07-02T00:50:40;48714.69;;;-146.00;72.65
21102;BME280;10709;49.006;12.100;2023-07-02T00:53:07;48742.13;;;-146.00;73.27
21102;BME280;10709;49.006;12.100;2023-07-02T00:55:34;48718.59;;;-146.00;73.04
21102;BME280;10709;49.006;12.100;2023-07-02T00:58:02;48746.03;;;-146.00;73.96
21102;BME280;10709;49.006;12.100;2023-07-02T01:00:30;48738.19;;;-146.00;73.27
21102;BME280;10709;49.006;12.100;2023-07-02T01:02:59;48777.38;;;-146.00;73.03
21102;BME280;10709;49.006;12.100;2023-07-02T01:05:27;48744.06;;;-146.00;73.24
21102;BME280;10709;49.006;12.100;2023-07-02T01:08:05;48730.38;;;-146.00;73.42
21102;BME280;10709;49.006;12.100;2023-07-02T01:10:32;48779.34;;;-146.00;73.29
21102;BME280;10709;49.006;12.100;2023-07-02T01:13:13;48753.88;;;-146.00;73.70
21102;BME280;10709;49.006;12.100;2023-07-02T01:15:43;48742.13;;;-146.00;73.55
21102;BME280;10709;49.006;12.100;2023-07-02T01:18:16;48742.13;;;-146.00;73.62
21102;BME280;10709;49.006;12.100;2023-07-02T01:20:51;48761.72;;;-146.00;73.84
21102;BME280;10709;49.006;12.100;2023-07-02T01:23:20;48746.03;;;-146.00;74.25
21102;BME280;10709;49.006;12.100;2023-07-02T01:25:51;48746.03;;;-146.00;73.93
21102;BME280;10709;49.006;12.100;2023-07-02T01:28:18;48773.47;;;-146.00;73.66
21102;BME280;10709;49.006;12.100;2023-07-02T01:30:44;48769.53;;;-146.00;74.25
21102;BME280;10709;49.006;12.100;2023-07-02T01:33:11;48755.84;;;-146.00;73.85
21102;BME280;10709;49.006;12.100;2023-07-02T01:35:37;48746.03;;;-146.00;74.58
21102;BME280;10709;49.006;12.100;2023-07-02T01:38:06;48763.66;;;-146.00;74.93
21102;BME280;10709;49.006;12.100;2023-07-02T01:40:33;48742.13;;;-146.00;74.96
21102;BME280;10709;49.006;12.100;2023-07-02T01:42:59;48734.28;;;-146.00;75.37
21102;BME280;10709;49.006;12.100;2023-07-02T01:45:27;48746.03;;;-146.00;75.16
21102;BME280;10709;49.006;12.100;2023-07-02T01:47:56;48757.78;;;-146.00;75.69
21102;BME280;10709;49.006;12.100;2023-07-02T01:50:23;48769.53;;;-146.00;75.96
21102;BME280;10709;49.006;12.100;2023-07-02T01:52:50;48775.41;;;-146.00;76.37
21102;BME280;10709;49.006;12.100;2023-07-02T01:55:17;48761.72;;;-146.00;76.18
21102;BME280;10709;49.006;12.100;2023-07-02T01:57:46;48767.59;;;-146.00;76.00
21102;BME280;10709;49.006;12.100;2023-07-02T02:00:13;48746.03;;;-146.00;75.50
21102;BME280;10709;49.006;12.100;2023-07-02T02:02:42;48773.47;;;-146.00;75.83
21102;BME280;10709;49.006;12.100;2023-07-02T02:05:09;48757.78;;;-146.00;75.92
21102;BME280;10709;49.006;12.100;2023-07-02T02:07:36;48781.31;;;-146.00;76.35
21102;BME280;10709;49.006;12.100;2023-07-02T02:10:03;48796.97;;;-146.00;76.83
21102;BME280;10709;49.006;12.100;2023-07-02T02:12:33;48753.88;;;-146.00;76.00
21102;BME280;10709;49.006;12.100;2023-07-02T02:15:00;48771.50;;;-146.00;76.69
21102;BME280;10709;49.006;12.100;2023-07-02T02:17:27;48769.53;;;-146.00;76.37
21102;BME280;10709;49.006;12.100;2023-07-02T02:19:54;48751.91;;;-146.00;76.50
21102;BME280;10709;49.006;12.100;2023-07-02T02:22:24;48785.22;;;-146.00;76.73
21102;BME280;10709;49.006;12.100;2023-07-02T02:24:52;48763.66;;;-146.00;77.00
21102;BME280;10709;49.006;12.100;2023-07-02T02:27:21;48777.38;;;-146.00;76.94
21102;BME280;10709;49.006;12.100;2023-07-02T02:29:47;48779.34;;;-146.00;76.78
21102;BME280;10709;49.006;12.100;2023-07-02T02:32:17;48746.03;;;-146.00;76.22
21102;BME280;10709;49.006;12.100;2023-07-02T02:34:47;48765.63;;;-146.00;76.40
21102;BME280;10709;49.006;12.100;2023-07-02T02:37:14;48744.06;;;-146.00;75.20
21102;BME280;10709;49.006;12.100;2023-07-02T02:39:41;48746.03;;;-146.00;74.26
21102;BME280;10709;49.006;12.100;2023-07-02T02:42:08;48757.78;;;-146.00;73.20
21102;BME280;10709;49.006;12.100;2023-07-02T02:44:35;48706.84;;;-146.00;71.17
21102;BME280;10709;49.006;12.100;2023-07-02T02:47:02;48699.03;;;-146.00;70.04
21102;BME280;10709;49.006;12.100;2023-07-02T02:49:29;48710.78;;;-146.00;68.02
21102;BME280;10709;49.006;12.100;2023-07-02T02:52:36;48724.50;;;-146.00;67.62
21102;BME280;10709;49.006;12.100;2023-07-02T02:56:27;48695.09;;;-146.00;66.38
21102;BME280;10709;49.006;12.100;2023-07-02T03:03:54;48699.03;;;-146.00;64.58
21102;BME280;10709;49.006;12.100;2023-07-02T03:07:36;48699.03;;;-146.00;64.17
21102;BME280;10709;49.006;12.100;2023-07-02T03:15:51;48734.28;;;-146.00;64.00
21102;BME280;10709;49.006;12.100;2023-07-02T03:27:19;48714.69;;;-146.00;63.03
21102;BME280;10709;49.006;12.100;2023-07-02T03:35:00;48685.31;;;-146.00;63.35
21102;BME280;10709;49.006;12.100;2023-07-02T03:38:21;48693.16;;;-146.00;63.58
21102;BME280;10709;49.006;12.100;2023-07-02T03:45:41;48702.94;;;-146.00;63.71
21102;BME280;10709;49.006;12.100;2023-07-02T03:49:35;48683.34;;;-146.00;63.87
21102;BME280;10709;49.006;12.100;2023-07-02T03:56:39;48693.16;;;-146.00;64.58
21102;BME280;10709;49.006;12.100;2023-07-02T04:00:12;48695.09;;;-146.00;65.06
21102;BME280;10709;49.006;12.100;2023-07-02T04:08:15;48718.59;;;-146.00;65.68
21102;BME280;10709;49.006;12.100;2023-07-02T04:11:42;48714.69;;;-146.00;66.38
21102;BME280;10709;49.006;12.100;2023-07-02T04:15:14;48691.19;;;-146.00;66.92
21102;BME280;10709;49.006;12.100;2023-07-02T04:19:04;48736.25;;;-146.00;67.31
21102;BME280;10709;49.006;12.100;2023-07-02T04:30:55;48710.78;;;-146.00;68.32
21102;BME280;10709;49.006;12.100;2023-07-02T04:38:14;48710.78;;;-146.00;68.36
21102;BME280;10709;49.006;12.100;2023-07-02T04:41:52;48742.13;;;-146.00;68.12
21102;BME280;10709;49.006;12.100;2023-07-02T04:45:43;48704.91;;;-146.00;68.17
21102;BME280;10709;49.006;12.100;2023-07-02T04:49:45;48716.66;;;-146.00;68.06
21102;BME280;10709;49.006;12.100;2023-07-02T04:53:16;48722.53;;;-146.00;68.02
21102;BME280;10709;49.006;12.100;2023-07-02T05:04:33;48718.59;;;-146.00;66.85
21102;BME280;10709;49.006;12.100;2023-07-02T05:12:33;48726.44;;;-146.00;65.52
21102;BME280;10709;49.006;12.100;2023-07-02T05:16:23;48734.28;;;-146.00;65.91
21102;BME280;10709;49.006;12.100;2023-07-02T05:20:03;48734.28;;;-146.00;64.95
21102;BME280;10709;49.006;12.100;2023-07-02T05:23:21;48699.03;;;-146.00;64.33
21102;BME280;10709;49.006;12.100;2023-07-02T05:26:46;48726.44;;;-146.00;63.88
21102;BME280;10709;49.006;12.100;2023-07-02T05:29:37;48718.59;;;-146.00;64.33
21102;BME280;10709;49.006;12.100;2023-07-02T05:33:07;48738.19;;;-146.00;64.14
21102;BME280;10709;49.006;12.100;2023-07-02T05:36:05;48697.06;;;-146.00;63.62
21102;BME280;10709;49.006;12.100;2023-07-02T05:39:21;48726.44;;;-146.00;63.37
21102;BME280;10709;49.006;12.100;2023-07-02T05:46:54;48710.78;;;-146.00;62.62
21102;BME280;10709;49.006;12.100;2023-07-02T05:50:19;48691.19;;;-146.00;62.43
21102;BME280;10709;49.006;12.100;2023-07-02T05:53:22;48753.88;;;-146.00;62.34
21102;BME280;10709;49.006;12.100;2023-07-02T05:55:49;48710.78;;;-146.00;61.97
21102;BME280;10709;49.006;12.100;2023-07-02T05:58:15;48714.69;;;-146.00;61.98
21102;BME280;10709;49.006;12.100;2023-07-02T06:00:42;48681.41;;;-146.00;62.14
21102;BME280;10709;49.006;12.100;2023-07-02T06:03:17;48738.19;;;-146.00;61.28
21102;BME280;10709;49.006;12.100;2023-07-02T06:05:49;48708.81;;;-146.00;61.19
21102;BME280;10709;49.006;12.100;2023-07-02T06:08:16;48702.94;;;-146.00;61.49
21102;BME280;10709;49.006;12.100;2023-07-02T06:10:46;48714.69;;;-146.00;61.51
21102;BME280;10709;49.006;12.100;2023-07-02T06:13:13;48722.53;;;-146.00;61.55
21102;BME280;10709;49.006;12.100;2023-07-02T06:15:40;48710.78;;;-146.00;61.37
21102;BME280;10709;49.006;12.100;2023-07-02T06:18:07;48720.56;;;-146.00;61.62
21102;BME280;10709;49.006;12.100;2023-07-02T06:20:33;48714.69;;;-146.00;60.95
21102;BME280;10709;49.006;12.100;2023-07-02T06:23:01;48700.97;;;-146.00;60.66
21102;BME280;10709;49.006;12.100;2023-07-02T06:25:28;48693.16;;;-146.00;60.62
21102;BME280;10709;49.006;12.100;2023-07-02T06:27:55;48722.53;;;-146.00;60.20
21102;BME280;10709;49.006;12.100;2023-07-02T06:30:25;48714.69;;;-146.00;59.99
21102;BME280;10709;49.006;12.100;2023-07-02T06:32:56;48706.84;;;-146.00;59.73
21102;BME280;10709;49.006;12.100;2023-07-02T06:35:26;48702.94;;;-146.00;59.70
21102;BME280;10709;49.006;12.100;2023-07-02T06:37:54;48742.13;;;-146.00;60.02
21102;BME280;10709;49.006;12.100;2023-07-02T06:40:21;48702.94;;;-146.00;59.99
21102;BME280;10709;49.006;12.100;2023-07-02T06:42:50;48722.53;;;-146.00;59.86
21102;BME280;10709;49.006;12.100;2023-07-02T06:45:23;48706.84;;;-146.00;60.06
21102;BME280;10709;49.006;12.100;2023-07-02T06:47:53;48699.03;;;-146.00;60.43
21102;BME280;10709;49.006;12.100;2023-07-02T06:50:20;48714.69;;;-146.00;60.37
21102;BME280;10709;49.006;12.100;2023-07-02T06:52:47;48691.19;;;-146.00;60.52
21102;BME280;10709;49.006;12.100;2023-07-02T06:55:15;48699.03;;;-146.00;60.86
21102;BME280;10709;49.006;12.100;2023-07-02T06:57:43;48710.78;;;-146.00;60.61
21102;BME280;10709;49.006;12.100;2023-07-02T07:00:15;48718.59;;;-146.00;60.57
21102;BME280;10709;49.006;12.100;2023-07-02T07:02:45;48687.28;;;-146.00;60.71
21102;BME280;10709;49.006;12.100;2023-07-02T07:05:11;48702.94;;;-146.00;60.67
21102;BME280;10709;49.006;12.100;2023-07-02T07:07:38;48710.78;;;-146.00;60.77
21102;BME280;10709;49.006;12.100;2023-07-02T07:10:05;48710.78;;;-146.00;60.68
21102;BME280;10709;49.006;12.100;2023-07-02T07:12:32;48695.09;;;-146.00;60.71
21102;BME280;10709;49.006;12.100;2023-07-02T07:14:58;48704.91;;;-146.00;60.70
21102;BME280;10709;49.006;12.100;2023-07-02T07:17:25;48736.25;;;-146.00;60.69
21102;BME280;10709;49.006;12.100;2023-07-02T07:19:52;48695.09;;;-146.00;60.44
21102;BME280;10709;49.006;12.100;2023-07-02T07:22:18;48702.94;;;-146.00;60.20
21102;BME280;10709;49.006;12.100;2023-07-02T07:24:45;48681.41;;;-146.00;60.11
21102;BME280;10709;49.006;12.100;2023-07-02T07:27:11;48700.97;;;-146.00;60.25
21102;BME280;10709;49.006;12.100;2023-07-02T07:29:38;48691.19;;;-146.00;60.24
21102;BME280;10709;49.006;12.100;2023-07-02T07:32:05;48738.19;;;-146.00;60.16
21102;BME280;10709;49.006;12.100;2023-07-02T07:34:33;48706.84;;;-146.00;59.43
21102;BME280;10709;49.006;12.100;2023-07-02T07:36:59;48706.84;;;-146.00;59.25
21102;BME280;10709;49.006;12.100;2023-07-02T07:39:27;48714.69;;;-146.00;58.74
21102;BME280;10709;49.006;12.100;2023-07-02T07:41:53;48734.28;;;-146.00;58.49
21102;BME280;10709;49.006;12.100;2023-07-02T07:44:20;48702.94;;;-146.00;57.95
21102;BME280;10709;49.006;12.100;2023-07-02T07:46:46;48726.44;;;-146.00;57.96
21102;BME280;10709;49.006;12.100;2023-07-02T07:49:16;48702.94;;;-146.00;57.90
21102;BME280;10709;49.006;12.100;2023-07-02T07:51:43;48699.03;;;-146.00;58.06
21102;BME280;10709;49.006;12.100;2023-07-02T07:54:10;48700.97;;;-146.00;57.72
21102;BME280;10709;49.006;12.100;2023-07-02T07:56:37;48710.78;;;-146.00;57.70
21102;BME280;10709;49.006;12.100;2023-07-02T07:59:04;48714.69;;;-146.00;57.55
21102;BME280;10709;49.006;12.100;2023-07-02T08:01:34;48755.84;;;-146.00;57.49
21102;BME280;10709;49.006;12.100;2023-07-02T08:04:03;48708.81;;;-146.00;56.65
21102;BME280;10709;49.006;12.100;2023-07-02T08:06:32;48710.78;;;-146.00;56.55
21102;BME280;10709;49.006;12.100;2023-07-02T08:08:59;48730.38;;;-146.00;55.66
21102;BME280;10709;49.006;12.100;2023-07-02T08:11:25;48685.31;;;-146.00;55.01
21102;BME280;10709;49.006;12.100;2023-07-02T08:13:55;48730.38;;;-146.00;55.33
21102;BME280;10709;49.006;12.100;2023-07-02T08:16:22;48726.44;;;-146.00;55.28
21102;BME280;10709;49.006;12.100;2023-07-02T08:18:51;48691.19;;;-146.00;55.39
21102;BME280;10709;49.006;12.100;2023-07-02T08:21:17;48746.03;;;-146.00;55.57
21102;BME280;10709;49.006;12.100;2023-07-02T08:23:44;48710.78;;;-146.00;55.24
21102;BME280;10709;49.006;12.100;2023-07-02T08:26:11;48726.44;;;-146.00;55.21
21102;BME280;10709;49.006;12.100;2023-07-02T08:28:38;48716.66;;;-146.00;54.98
21102;BME280;10709;49.006;12.100;2023-07-02T08:42:58;48718.59;;;-146.00;54.01
21102;BME280;10709;49.006;12.100;2023-07-02T08:54:25;48714.69;;;-146.00;53.60
21102;BME280;10709;49.006;12.100;2023-07-02T08:57:56;48722.53;;;-146.00;53.22
21102;BME280;10709;49.006;12.100;2023-07-02T09:02:04;48724.50;;;-146.00;52.93
21102;BME280;10709;49.006;12.100;2023-07-02T09:06:11;48769.53;;;-146.00;53.03
21102;BME280;10709;49.006;12.100;2023-07-02T09:09:07;48726.44;;;-146.00;52.89
21102;BME280;10709;49.006;12.100;2023-07-02T09:12:43;48699.03;;;-146.00;52.16
21102;BME280;10709;49.006;12.100;2023-07-02T09:15:45;48736.25;;;-146.00;51.87
21102;BME280;10709;49.006;12.100;2023-07-02T09:19:05;48724.50;;;-146.00;52.09
21102;BME280;10709;49.006;12.100;2023-07-02T09:22:11;48738.19;;;-146.00;51.68
21102;BME280;10709;49.006;12.100;2023-07-02T09:25:38;48714.69;;;-146.00;51.44
21102;BME280;10709;49.006;12.100;2023-07-02T09:28:36;48742.13;;;-146.00;51.39
21102;BME280;10709;49.006;12.100;2023-07-02T09:31:48;48726.44;;;-146.00;50.81
21102;BME280;10709;49.006;12.100;2023-07-02T09:35:27;48722.53;;;-146.00;50.45
21102;BME280;10709;49.006;12.100;2023-07-02T09:38:55;48718.59;;;-146.00;50.47
21102;BME280;10709;49.006;12.100;2023-07-02T09:45:47;48765.63;;;-146.00;49.34
21102;BME280;10709;49.006;12.100;2023-07-02T09:53:27;48722.53;;;-146.00;50.02
21102;BME280;10709;49.006;12.100;2023-07-02T09:57:30;48742.13;;;-146.00;48.90
21102;BME280;10709;49.006;12.100;2023-07-02T10:01:02;48726.44;;;-146.00;48.80
21102;BME280;10709;49.006;12.100;2023-07-02T10:12:29;48738.19;;;-146.00;48.99
21102;BME280;10709;49.006;12.100;2023-07-02T10:16:18;48746.03;;;-146.00;48.38
21102;BME280;10709;49.006;12.100;2023-07-02T10:23:39;48738.19;;;-146.00;48.37
21102;BME280;10709;49.006;12.100;2023-07-02T10:31:20;48753.88;;;-146.00;47.88
21102;BME280;10709;49.006;12.100;2023-07-02T10:34:40;48714.69;;;-146.00;47.85
21102;BME280;10709;49.006;12.100;2023-07-02T10:48:58;48732.31;;;-146.00;44.37
21102;BME280;10709;49.006;12.100;2023-07-02T10:52:55;48753.88;;;-146.00;44.75
21102;BME280;10709;49.006;12.100;2023-07-02T10:56:49;48746.03;;;-146.00;42.88
21102;BME280;10709;49.006;12.100;2023-07-02T11:00:55;48746.03;;;-146.00;42.09
21102;BME280;10709;49.006;12.100;2023-07-02T11:04:59;48730.38;;;-146.00;42.40
21102;BME280;10709;49.006;12.100;2023-07-02T11:08:44;48775.41;;;-146.00;41.70
21102;BME280;10709;49.006;12.100;2023-07-02T11:16:22;48753.88;;;-146.00;40.60
21102;BME280;10709;49.006;12.100;2023-07-02T11:20:15;48781.31;;;-146.00;41.37
21102;BME280;10709;49.006;12.100;2023-07-02T11:28:01;48730.38;;;-146.00;40.65
21102;BME280;10709;49.006;12.100;2023-07-02T11:35:15;48742.13;;;-146.00;40.91
21102;BME280;10709;49.006;12.100;2023-07-02T11:38:55;48759.75;;;-146.00;40.69
21102;BME280;10709;49.006;12.100;2023-07-02T11:42:39;48779.34;;;-146.00;39.33
21102;BME280;10709;49.006;12.100;2023-07-02T11:46:24;48769.53;;;-146.00;40.02
21102;BME280;10709;49.006;12.100;2023-07-02T11:50:12;48773.47;;;-146.00;39.91
21102;BME280;10709;49.006;12.100;2023-07-02T11:58:13;48787.19;;;-146.00;39.83
21102;BME280;10709;49.006;12.100;2023-07-02T12:02:21;48789.13;;;-146.00;40.03
21102;BME280;10709;49.006;12.100;2023-07-02T12:06:25;48785.22;;;-146.00;39.69
21102;BME280;10709;49.006;12.100;2023-07-02T12:20:03;48773.47;;;-146.00;40.87
21102;BME280;10709;49.006;12.100;2023-07-02T12:22:30;48777.38;;;-146.00;39.92
21102;BME280;10709;49.006;12.100;2023-07-02T12:24:57;48773.47;;;-146.00;39.84
21102;BME280;10709;49.006;12.100;2023-07-02T12:27:25;48746.03;;;-146.00;39.87
21102;BME280;10709;49.006;12.100;2023-07-02T12:29:53;48753.88;;;-146.00;39.60
21102;BME280;10709;49.006;12.100;2023-07-02T12:32:20;48773.47;;;-146.00;39.81
21102;BME280;10709;49.006;12.100;2023-07-02T12:34:47;48751.91;;;-146.00;39.97
21102;BME280;10709;49.006;12.100;2023-07-02T12:37:13;48765.63;;;-146.00;39.60
21102;BME280;10709;49.006;12.100;2023-07-02T12:39:43;48789.13;;;-146.00;39.58
21102;BME280;10709;49.006;12.100;2023-07-02T12:42:10;48765.63;;;-146.00;39.60
21102;BME280;10709;49.006;12.100;2023-07-02T12:44:37;48767.59;;;-146.00;39.95
21102;BME280;10709;49.006;12.100;2023-07-02T12:47:04;48765.63;;;-146.00;40.14
21102;BME280;10709;49.006;12.100;2023-07-02T12:49:31;48781.31;;;-146.00;39.56
21102;BME280;10709;49.006;12.100;2023-07-02T12:52:00;48777.38;;;-146.00;39.46
21102;BME280;10709;49.006;12.100;2023-07-02T12:54:27;48777.38;;;-146.00;38.24
21102;BME280;10709;49.006;12.100;2023-07-02T12:56:53;48765.63;;;-146.00;38.17
21102;BME280;10709;49.006;12.100;2023-07-02T12:59:20;48767.59;;;-146.00;38.60
21102;BME280;10709;49.006;12.100;2023-07-02T13:01:47;48796.97;;;-146.00;37.47
21102;BME280;10709;49.006;12.100;2023-07-02T13:04:14;48746.03;;;-146.00;37.27
21102;BME280;10709;49.006;12.100;2023-07-02T13:06:41;48789.13;;;-146.00;37.33
21102;BME280;10709;49.006;12.100;2023-07-02T13:09:08;48773.47;;;-146.00;37.45
21102;BME280;10709;49.006;12.100;2023-07-02T13:11:35;48777.38;;;-146.00;38.06
21102;BME280;10709;49.006;12.100;2023-07-02T13:14:02;48793.06;;;-146.00;37.84
21102;BME280;10709;49.006;12.100;2023-07-02T13:16:31;48793.06;;;-146.00;37.43
21102;BME280;10709;49.006;12.100;2023-07-02T13:18:57;48820.47;;;-146.00;37.44
21102;BME280;10709;49.006;12.100;2023-07-02T13:21:24;48800.88;;;-146.00;36.88
21102;BME280;10709;49.006;12.100;2023-07-02T13:23:52;48769.53;;;-146.00;37.02
21102;BME280;10709;49.006;12.100;2023-07-02T13:26:18;48767.59;;;-146.00;36.54
21102;BME280;10709;49.006;12.100;2023-07-02T13:28:46;48785.22;;;-146.00;36.22
21102;BME280;10709;49.006;12.100;2023-07-02T13:31:14;48769.53;;;-146.00;36.50
21102;BME280;10709;49.006;12.100;2023-07-02T13:33:42;48765.63;;;-146.00;36.90
21102;BME280;10709;49.006;12.100;2023-07-02T13:36:09;48781.31;;;-146.00;37.04
21102;BME280;10709;49.006;12.100;2023-07-02T13:38:36;48785.22;;;-146.00;36.85
21102;BME280;10709;49.006;12.100;2023-07-02T13:41:02;48818.53;;;-146.00;37.50
21102;BME280;10709;49.006;12.100;2023-07-02T13:43:29;48769.53;;;-146.00;37.50
21102;BME280;10709;49.006;12.100;2023-07-02T13:45:55;48773.47;;;-146.00;36.81
21102;BME280;10709;49.006;12.100;2023-07-02T13:48:22;48779.34;;;-146.00;37.31
21102;BME280;10709;49.006;12.100;2023-07-02T13:50:52;48793.06;;;-146.00;37.33
21102;BME280;10709;49.006;12.100;2023-07-02T13:53:19;48796.97;;;-146.00;37.58
21102;BME280;10709;49.006;12.100;2023-07-02T13:55:45;48789.13;;;-146.00;37.70
21102;BME280;10709;49.006;12.100;2023-07-02T13:58:12;48793.06;;;-146.00;36.75
21102;BME280;10709;49.006;12.100;2023-07-02T14:00:43;48769.53;;;-146.00;37.86
21102;BME280;10709;49.006;12.100;2023-07-02T14:03:09;48832.22;;;-146.00;37.38
21102;BME280;10709;49.006;12.100;2023-07-02T14:05:36;48740.16;;;-146.00;37.59
21102;BME280;10709;49.006;12.100;2023-07-02T14:08:03;48802.84;;;-146.00;37.19
21102;BME280;10709;49.006;12.100;2023-07-02T14:10:30;48769.53;;;-146.00;36.97
21102;BME280;10709;49.006;12.100;2023-07-02T14:12:56;48781.31;;;-146.00;37.04
21102;BME280;10709;49.006;12.100;2023-07-02T14:15:24;48769.53;;;-146.00;36.85
21102;BME280;10709;49.006;12.100;2023-07-02T15:05:36;48736.25;;;-146.00;35.82
21102;BME280;10709;49.006;12.100;2023-07-02T15:51:18;48800.88;;;-146.00;35.26
21102;BME280;10709;49.006;12.100;2023-07-02T15:53:45;48769.53;;;-146.00;35.41
21102;BME280;10709;49.006;12.100;2023-07-02T15:56:14;48789.13;;;-146.00;35.31
21102;BME280;10709;49.006;12.100;2023-07-02T15:58:41;48789.13;;;-146.00;35.41
21102;BME280;10709;49.006;12.100;2023-07-02T16:01:11;48757.78;;;-146.00;35.47
21102;BME280;10709;49.006;12.100;2023-07-02T16:03:38;48804.81;;;-146.00;35.25
21102;BME280;10709;49.006;12.100;2023-07-02T16:06:07;48795.00;;;-146.00;35.52
21102;BME280;10709;49.006;12.100;2023-07-02T16:08:35;48810.69;;;-146.00;35.93
21102;BME280;10709;49.006;12.100;2023-07-02T16:11:07;48796.97;;;-146.00;35.47
21102;BME280;10709;49.006;12.100;2023-07-02T16:13:37;48757.78;;;-146.00;35.11
21102;BME280;10709;49.006;12.100;2023-07-02T16:16:04;48793.06;;;-146.00;35.84
21102;BME280;10709;49.006;12.100;2023-07-02T16:21:16;48804.81;;;-146.00;35.94
21102;BME280;10709;49.006;12.100;2023-07-02T16:23:43;48763.66;;;-146.00;36.07
21102;BME280;10709;49.006;12.100;2023-07-02T16:26:10;48793.06;;;-146.00;35.54
21102;BME280;10709;49.006;12.100;2023-07-02T16:28:37;48773.47;;;-146.00;35.54
21102;BME280;10709;49.006;12.100;2023-07-02T16:31:07;48793.06;;;-146.00;35.58
21102;BME280;10709;49.006;12.100;2023-07-02T16:33:34;48765.63;;;-146.00;35.48
21102;BME280;10709;49.006;12.100;2023-07-02T16:36:06;48746.03;;;-146.00;35.66
21102;BME280;10709;49.006;12.100;2023-07-02T16:38:33;48789.13;;;-146.00;35.84
21102;BME280;10709;49.006;12.100;2023-07-02T16:41:03;48777.38;;;-146.00;35.72
21102;BME280;10709;49.006;12.100;2023-07-02T16:43:32;48781.31;;;-146.00;35.65
21102;BME280;10709;49.006;12.100;2023-07-02T16:46:03;48779.34;;;-146.00;35.45
21102;BME280;10709;49.006;12.100;2023-07-02T16:48:30;48769.53;;;-146.00;35.88
21102;BME280;10709;49.006;12.100;2023-07-02T16:50:58;48793.06;;;-146.00;35.96
21102;BME280;10709;49.006;12.100;2023-07-02T16:53:25;48789.13;;;-146.00;35.65
21102;BME280;10709;49.006;12.100;2023-07-02T16:56:01;48773.47;;;-146.00;35.70
21102;BME280;10709;49.006;12.100;2023-07-02T16:58:29;48753.88;;;-146.00;35.52
21102;BME280;10709;49.006;12.100;2023-07-02T17:01:04;48796.97;;;-146.00;35.56
21102;BME280;10709;49.006;12.100;2023-07-02T17:03:31;48761.72;;;-146.00;35.95
21102;BME280;10709;49.006;12.100;2023-07-02T17:06:02;48793.06;;;-146.00;36.00
21102;BME280;10709;49.006;12.100;2023-07-02T17:08:34;48785.22;;;-146.00;35.91
21102;BME280;10709;49.006;12.100;2023-07-02T17:11:05;48781.31;;;-146.00;35.81
21102;BME280;10709;49.006;12.100;2023-07-02T17:13:32;48785.22;;;-146.00;35.87
21102;BME280;10709;49.006;12.100;2023-07-02T17:15:59;48800.88;;;-146.00;36.18
21102;BME280;10709;49.006;12.100;2023-07-02T17:18:26;48806.75;;;-146.00;36.25
21102;BME280;10709;49.006;12.100;2023-07-02T17:20:53;48740.16;;;-146.00;36.27
21102;BME280;10709;49.006;12.100;2023-07-02T17:23:23;48746.03;;;-146.00;36.16
21102;BME280;10709;49.006;12.100;2023-07-02T17:25:52;48783.25;;;-146.00;35.90
21102;BME280;10709;49.006;12.100;2023-07-02T17:28:19;48793.06;;;-146.00;36.20
21102;BME280;10709;49.006;12.100;2023-07-02T17:30:45;48781.31;;;-146.00;36.08
21102;BME280;10709;49.006;12.100;2023-07-02T17:33:14;48777.38;;;-146.00;36.41
21102;BME280;10709;49.006;12.100;2023-07-02T17:35:42;48796.97;;;-146.00;36.18
21102;BME280;10709;49.006;12.100;2023-07-02T17:43:25;48761.72;;;-146.00;35.82
21102;BME280;10709;49.006;12.100;2023-07-02T17:45:56;48777.38;;;-146.00;36.33
21102;BME280;10709;49.006;12.100;2023-07-02T17:48:23;48777.38;;;-146.00;36.38
21102;BME280;10709;49.006;12.100;2023-07-02T17:50:54;48761.72;;;-146.00;36.00
21102;BME280;10709;49.006;12.100;2023-07-02T17:53:21;48742.13;;;-146.00;36.34
21102;BME280;10709;49.006;12.100;2023-07-02T17:55:48;48769.53;;;-146.00;36.00
21102;BME280;10709;49.006;12.100;2023-07-02T17:58:16;48787.19;;;-146.00;36.50